Time;durP1;ratioP1;P1;durP2;ratioP2;P2;SDS_P1;SDS_P2;PMS_P1;PMS_P2;Temp;Humidity;BMP_temperature;BMP_pressure;BME280_temperature;BME280_humidity;BME280_pressure;Samples;Min_cycle;Max_cycle;Signal;HPM_P1;HPM_P2
2021/10/18 00:01:27;;;;;;;78.32;33.28;;;9.10;99.90;;;;;;4935337;29;20103;-68
2021/10/18 00:03:53;;;;;;;69.03;32.35;;;9.10;99.90;;;;;;4935054;29;20458;-68
2021/10/18 00:06:19;;;;;;;73.13;33.67;;;9.10;99.90;;;;;;4934521;29;20409;-67
2021/10/18 00:08:44;;;;;;;71.78;33.47;;;9.00;99.90;;;;;;4935191;29;20027;-68
2021/10/18 00:11:10;;;;;;;77.25;34.70;;;9.00;99.90;;;;;;4934823;29;20035;-67
2021/10/18 00:13:36;;;;;;;73.18;33.03;;;9.00;99.90;;;;;;4935030;29;20477;-66
2021/10/18 00:16:02;;;;;;;66.93;32.38;;;9.00;99.90;;;;;;4934381;29;20032;-67
2021/10/18 00:18:27;;;;;;;67.75;31.95;;;8.90;99.90;;;;;;4934954;29;20159;-67
2021/10/18 00:20:54;;;;;;;72.75;33.63;;;8.80;99.90;;;;;;4934959;29;20497;-66
2021/10/18 00:23:20;;;;;;;69.45;32.83;;;8.90;99.90;;;;;;4935002;29;20059;-67
2021/10/18 00:25:45;;;;;;;76.07;32.10;;;8.90;99.90;;;;;;4916815;29;20077;-66
2021/10/18 00:28:11;;;;;;;74.45;33.40;;;8.90;99.90;;;;;;4915746;29;20020;-65
2021/10/18 00:30:37;;;;;;;73.88;34.03;;;8.90;99.90;;;;;;4916044;29;20024;-66
2021/10/18 00:33:03;;;;;;;70.88;33.33;;;8.90;99.90;;;;;;4915679;29;20059;-67
2021/10/18 00:35:29;;;;;;;79.15;33.88;;;9.00;99.90;;;;;;4914913;29;20062;-68
2021/10/18 00:37:54;;;;;;;72.07;32.38;;;9.00;99.90;;;;;;4915736;29;20499;-68
2021/10/18 00:40:20;;;;;;;80.68;34.42;;;9.00;99.90;;;;;;4915020;29;20027;-67
2021/10/18 00:42:49;;;;;;;74.50;32.67;;;9.00;99.90;;;;;;4915713;29;20483;-66
2021/10/18 00:45:15;;;;;;;66.75;31.00;;;8.90;99.90;;;;;;4914952;29;20040;-68
2021/10/18 00:47:40;;;;;;;72.60;31.33;;;8.90;99.90;;;;;;4915779;29;20099;-66
2021/10/18 00:50:07;;;;;;;70.15;30.95;;;8.90;99.90;;;;;;4915764;29;20040;-67
2021/10/18 00:52:34;;;;;;;69.72;31.15;;;8.90;99.90;;;;;;4921065;29;20056;-67
2021/10/18 00:55:00;;;;;;;67.65;30.05;;;8.90;99.90;;;;;;4930896;29;20036;-67
2021/10/18 00:57:26;;;;;;;69.82;30.30;;;8.80;99.90;;;;;;4939430;29;20023;-65
2021/10/18 00:59:52;;;;;;;69.28;30.92;;;8.80;99.90;;;;;;4940731;29;20074;-67
2021/10/18 01:02:18;;;;;;;61.05;28.52;;;8.90;99.90;;;;;;4940427;29;20020;-66
2021/10/18 01:04:45;;;;;;;64.75;29.08;;;8.80;99.90;;;;;;4938056;29;20103;-66
2021/10/18 01:07:11;;;;;;;61.55;29.38;;;8.80;99.90;;;;;;4935118;29;20070;-66
2021/10/18 01:09:37;;;;;;;56.95;27.63;;;8.80;99.90;;;;;;4934346;29;20028;-66
2021/10/18 01:12:03;;;;;;;61.47;28.55;;;8.80;99.90;;;;;;4934382;29;20039;-65
2021/10/18 01:14:28;;;;;;;62.72;29.25;;;8.90;99.90;;;;;;4933732;29;20032;-68
2021/10/18 01:16:54;;;;;;;59.25;28.27;;;8.90;99.90;;;;;;4934228;29;20027;-69
2021/10/18 01:19:23;;;;;;;58.55;27.63;;;8.90;99.90;;;;;;4934369;29;20042;-66
2021/10/18 01:21:56;;;;;;;56.78;26.73;;;8.90;99.90;;;;;;4934448;29;20056;-66
2021/10/18 01:24:22;;;;;;;53.75;25.20;;;8.90;99.90;;;;;;4933451;29;20406;-66
2021/10/18 01:26:48;;;;;;;46.47;24.17;;;8.90;99.90;;;;;;4934124;29;20024;-66
2021/10/18 01:29:13;;;;;;;47.60;23.00;;;9.00;99.90;;;;;;4934329;29;20038;-67
2021/10/18 01:31:42;;;;;;;46.97;23.88;;;8.90;99.90;;;;;;4934143;29;20130;-64
2021/10/18 01:34:08;;;;;;;49.67;23.05;;;8.90;99.90;;;;;;4934068;29;20039;-68
2021/10/18 01:36:34;;;;;;;47.08;23.55;;;8.90;99.90;;;;;;4933500;29;20036;-68
2021/10/18 01:39:00;;;;;;;46.38;23.48;;;8.90;99.90;;;;;;4934412;29;20410;-65
2021/10/18 01:41:25;;;;;;;49.85;24.38;;;9.00;99.90;;;;;;4933969;29;20031;-65
2021/10/18 01:43:51;;;;;;;44.90;22.85;;;9.00;99.90;;;;;;4934233;29;20079;-65
2021/10/18 01:46:17;;;;;;;50.95;23.42;;;9.00;99.90;;;;;;4933492;29;20470;-67
2021/10/18 01:48:43;;;;;;;46.08;22.27;;;9.00;99.90;;;;;;4934421;29;20031;-66
2021/10/18 01:51:09;;;;;;;45.65;23.17;;;9.00;99.90;;;;;;4934170;29;20417;-66
2021/10/18 01:53:35;;;;;;;41.17;21.50;;;8.90;99.90;;;;;;4937165;29;20031;-66
2021/10/18 01:56:01;;;;;;;47.08;21.73;;;9.00;99.90;;;;;;4937268;29;20027;-66
2021/10/18 01:58:31;;;;;;;54.47;25.25;;;8.90;99.90;;;;;;4937529;29;20397;-65
2021/10/18 02:00:57;;;;;;;47.10;23.83;;;8.90;99.90;;;;;;4937505;29;20036;-68
2021/10/18 02:03:22;;;;;;;49.38;23.70;;;9.00;99.90;;;;;;4937620;29;20047;-66
2021/10/18 02:05:48;;;;;;;50.45;24.05;;;8.90;99.90;;;;;;4936988;29;20063;-65
2021/10/18 02:08:14;;;;;;;48.40;24.48;;;8.90;99.90;;;;;;4937743;29;20024;-67
2021/10/18 02:10:39;;;;;;;53.55;24.08;;;8.80;99.90;;;;;;4936019;29;20365;-65
2021/10/18 02:13:05;;;;;;;51.67;24.23;;;8.90;99.90;;;;;;4937543;29;20035;-66
2021/10/18 02:15:31;;;;;;;45.67;22.70;;;8.90;99.90;;;;;;4936695;29;20034;-66
2021/10/18 02:17:57;;;;;;;48.40;24.08;;;8.90;99.90;;;;;;4937549;29;20027;-66
2021/10/18 02:20:23;;;;;;;47.47;23.30;;;8.90;99.90;;;;;;4937550;29;20079;-65
2021/10/18 02:22:48;;;;;;;46.10;23.25;;;8.90;99.90;;;;;;4937600;29;20043;-66
2021/10/18 02:25:14;;;;;;;45.35;22.65;;;8.80;99.90;;;;;;4923613;29;20039;-66
2021/10/18 02:27:40;;;;;;;47.30;25.25;;;8.90;99.90;;;;;;4918784;29;20111;-67
2021/10/18 02:30:08;;;;;;;47.45;24.20;;;8.80;99.90;;;;;;4918363;29;20032;-66
2021/10/18 02:32:34;;;;;;;44.53;23.92;;;8.80;99.90;;;;;;4918589;29;20040;-66
2021/10/18 02:34:59;;;;;;;43.83;23.40;;;8.90;99.90;;;;;;4917502;29;20459;-66
2021/10/18 02:37:25;;;;;;;47.85;23.10;;;8.90;99.90;;;;;;4918349;29;20530;-66
2021/10/18 02:39:51;;;;;;;48.72;23.48;;;8.80;99.90;;;;;;4917910;29;20451;-65
2021/10/18 02:42:17;;;;;;;42.50;21.80;;;8.90;99.90;;;;;;4918009;29;20024;-67
2021/10/18 02:44:42;;;;;;;41.47;21.83;;;8.90;99.90;;;;;;4917400;29;20024;-65
2021/10/18 02:47:08;;;;;;;45.15;22.10;;;9.00;99.90;;;;;;4918981;29;20036;-65
2021/10/18 02:49:35;;;;;;;45.78;23.27;;;9.00;99.90;;;;;;4918164;29;20462;-67
2021/10/18 02:52:02;;;;;;;58.78;24.60;;;8.90;99.90;;;;;;4916952;29;20032;-65
2021/10/18 02:54:27;;;;;;;52.58;24.58;;;8.90;99.90;;;;;;4924070;29;20102;-65
2021/10/18 02:56:53;;;;;;;59.47;26.25;;;8.90;99.90;;;;;;4936695;29;20056;-67
2021/10/18 02:59:18;;;;;;;58.47;25.85;;;8.80;99.90;;;;;;4937496;29;20030;-65
2021/10/18 03:01:44;;;;;;;62.20;27.92;;;8.80;99.90;;;;;;4936692;29;20111;-67
2021/10/18 03:04:10;;;;;;;75.88;30.88;;;8.80;99.90;;;;;;4936032;29;20063;-67
2021/10/18 03:06:35;;;;;;;61.03;26.85;;;8.80;99.90;;;;;;4935881;29;20091;-65
2021/10/18 03:09:01;;;;;;;70.75;28.05;;;8.80;99.90;;;;;;4935016;29;20039;-67
2021/10/18 03:11:27;;;;;;;67.38;28.15;;;8.80;99.90;;;;;;4935786;29;20032;-66
2021/10/18 03:13:54;;;;;;;70.97;27.77;;;8.80;99.90;;;;;;4936179;29;20042;-65
2021/10/18 03:16:19;;;;;;;73.78;27.85;;;8.70;99.90;;;;;;4935580;29;20070;-65
2021/10/18 03:18:45;;;;;;;77.50;30.80;;;8.80;99.90;;;;;;4936130;29;20047;-65
2021/10/18 03:21:11;;;;;;;80.07;30.67;;;8.80;99.90;;;;;;4936061;29;20036;-67
2021/10/18 03:23:36;;;;;;;79.32;30.23;;;8.80;99.90;;;;;;4935733;29;20032;-66
2021/10/18 03:26:03;;;;;;;67.07;27.08;;;8.80;99.90;;;;;;4934941;29;20066;-67
2021/10/18 03:28:28;;;;;;;76.70;29.80;;;8.80;99.90;;;;;;4935877;29;20038;-66
2021/10/18 03:30:54;;;;;;;77.47;31.15;;;8.70;99.90;;;;;;4935931;29;20224;-67
2021/10/18 03:33:19;;;;;;;83.10;31.90;;;8.80;99.90;;;;;;4935787;29;20087;-65
2021/10/18 03:35:45;;;;;;;78.38;30.95;;;8.80;99.90;;;;;;4935171;29;20158;-66
2021/10/18 03:38:11;;;;;;;82.47;30.95;;;8.80;99.90;;;;;;4935540;29;20032;-66
2021/10/18 03:40:37;;;;;;;74.50;29.08;;;8.80;99.90;;;;;;4935399;29;20027;-65
2021/10/18 03:43:02;;;;;;;76.07;30.55;;;8.80;99.90;;;;;;4935784;29;20518;-66
2021/10/18 03:45:28;;;;;;;92.53;33.33;;;8.90;99.90;;;;;;4934853;29;20119;-67
2021/10/18 03:47:54;;;;;;;92.97;34.33;;;9.00;99.90;;;;;;4935705;29;20055;-67
2021/10/18 03:50:19;;;;;;;101.38;35.00;;;9.00;99.90;;;;;;4935434;29;20032;-67
2021/10/18 03:52:45;;;;;;;90.85;33.35;;;9.10;99.90;;;;;;4935612;29;20028;-67
2021/10/18 03:55:11;;;;;;;98.90;36.28;;;9.10;99.90;;;;;;4933991;29;20039;-67
2021/10/18 03:57:37;;;;;;;97.55;34.42;;;9.10;99.90;;;;;;4942934;23;20048;-61
2021/10/18 04:00:05;;;;;;;100.50;34.15;;;8.90;99.90;;;;;;4916294;29;20123;-63
2021/10/18 04:02:31;;;;;;;94.70;32.33;;;8.90;99.90;;;;;;4916391;29;20024;-63
2021/10/18 04:04:57;;;;;;;105.13;35.33;;;8.80;99.90;;;;;;4915848;29;20513;-62
2021/10/18 04:07:22;;;;;;;92.05;33.95;;;8.80;99.90;;;;;;4916194;29;20030;-61
2021/10/18 04:09:48;;;;;;;95.30;33.55;;;8.80;99.90;;;;;;4916058;29;20071;-63
2021/10/18 04:12:14;;;;;;;98.53;34.20;;;8.80;99.90;;;;;;4915915;29;20028;-63
2021/10/18 04:14:39;;;;;;;104.13;35.33;;;8.80;99.90;;;;;;4915027;29;20048;-62
2021/10/18 04:17:05;;;;;;;101.43;34.22;;;8.80;99.90;;;;;;4914877;29;20398;-62
2021/10/18 04:19:31;;;;;;;89.35;32.80;;;8.80;99.90;;;;;;4915916;29;20071;-63
2021/10/18 04:21:56;;;;;;;99.75;33.78;;;8.90;99.90;;;;;;4916221;29;20028;-63
2021/10/18 04:24:22;;;;;;;97.45;34.03;;;8.80;99.90;;;;;;4915242;29;20039;-63
2021/10/18 04:26:48;;;;;;;93.75;35.90;;;8.80;99.90;;;;;;4915555;29;20402;-63
2021/10/18 04:29:13;;;;;;;105.32;35.88;;;8.80;99.90;;;;;;4916005;29;20064;-63
2021/10/18 04:31:39;;;;;;;104.25;35.20;;;8.80;99.90;;;;;;4915819;29;20671;-62
2021/10/18 04:34:05;;;;;;;95.88;34.47;;;8.80;99.90;;;;;;4915731;29;20076;-62
2021/10/18 04:36:31;;;;;;;94.18;34.78;;;8.80;99.90;;;;;;4908156;29;20032;-70
2021/10/18 04:38:56;;;;;;;100.72;34.65;;;8.80;99.90;;;;;;4912687;29;20032;-69
2021/10/18 04:41:22;;;;;;;93.30;35.50;;;8.80;99.90;;;;;;4915446;29;20024;-70
2021/10/18 04:43:48;;;;;;;103.13;37.60;;;8.80;99.90;;;;;;4915432;29;20068;-69
2021/10/18 04:46:14;;;;;;;105.32;36.85;;;8.80;99.90;;;;;;4914678;29;20039;-68
2021/10/18 04:48:39;;;;;;;111.57;38.58;;;8.80;99.90;;;;;;4915080;29;20036;-69
2021/10/18 04:51:05;;;;;;;117.35;39.38;;;8.80;99.90;;;;;;4915210;29;20035;-69
2021/10/18 04:53:31;;;;;;;117.10;39.97;;;9.00;99.90;;;;;;4915341;29;20028;-68
2021/10/18 04:55:57;;;;;;;108.05;37.15;;;9.00;99.90;;;;;;4914717;29;20471;-69
2021/10/18 04:58:22;;;;;;;91.22;33.75;;;8.90;99.90;;;;;;4914645;29;20115;-70
2021/10/18 05:00:54;;;;;;;95.97;34.13;;;8.90;99.90;;;;;;4915264;29;20078;-70
2021/10/18 05:03:20;;;;;;;121.10;38.83;;;8.90;99.90;;;;;;4915385;29;20027;-69
2021/10/18 05:05:45;;;;;;;111.10;37.05;;;9.10;99.90;;;;;;4916149;29;20264;-78
2021/10/18 05:08:13;;;;;;;110.65;37.55;;;9.00;99.90;;;;;;4930066;29;20055;-78
2021/10/18 05:10:42;;;;;;;95.25;32.63;;;9.00;99.90;;;;;;4916629;29;20027;-78
2021/10/18 05:13:09;;;;;;;94.03;34.00;;;9.00;99.90;;;;;;4915594;29;20034;-69
2021/10/18 05:15:35;;;;;;;102.72;37.10;;;9.00;99.90;;;;;;4914396;29;20076;-69
2021/10/18 05:18:01;;;;;;;103.55;36.13;;;8.90;99.90;;;;;;4914503;29;20024;-69
2021/10/18 05:20:28;;;;;;;93.30;35.30;;;9.00;99.90;;;;;;4915095;29;20020;-70
2021/10/18 05:22:54;;;;;;;96.28;34.58;;;9.00;99.90;;;;;;4915021;29;20043;-68
2021/10/18 05:25:20;;;;;;;96.53;35.38;;;9.00;99.90;;;;;;4914910;29;20028;-70
2021/10/18 05:27:46;;;;;;;83.70;32.13;;;9.10;99.90;;;;;;4918492;29;20079;-70
2021/10/18 05:30:12;;;;;;;89.47;35.00;;;9.10;99.90;;;;;;4918840;29;20052;-70
2021/10/18 05:32:39;;;;;;;83.32;32.67;;;9.00;99.90;;;;;;4918763;29;20028;-70
2021/10/18 05:35:06;;;;;;;81.00;33.45;;;9.00;99.90;;;;;;4918423;29;20032;-70
2021/10/18 05:37:32;;;;;;;86.95;34.53;;;9.10;99.90;;;;;;4918979;29;20479;-70
2021/10/18 05:39:57;;;;;;;79.07;32.95;;;9.00;99.90;;;;;;4918241;29;20082;-70
2021/10/18 05:42:23;;;;;;;84.70;32.50;;;9.10;99.90;;;;;;4918404;29;20107;-70
2021/10/18 05:44:49;;;;;;;78.47;31.85;;;9.00;99.90;;;;;;4918204;29;20032;-70
2021/10/18 05:47:14;;;;;;;81.07;31.67;;;9.00;99.90;;;;;;4918738;29;20391;-70
2021/10/18 05:49:40;;;;;;;90.03;33.58;;;9.00;99.90;;;;;;4918443;29;20035;-70
2021/10/18 05:52:06;;;;;;;93.15;34.42;;;9.10;99.90;;;;;;4918111;29;20043;-68
2021/10/18 05:54:32;;;;;;;95.07;34.50;;;9.10;99.90;;;;;;4917949;29;20036;-77
2021/10/18 05:56:57;;;;;;;92.50;34.28;;;9.20;99.90;;;;;;4913031;29;20077;-70
2021/10/18 05:59:23;;;;;;;91.45;34.25;;;9.20;99.90;;;;;;4918094;29;20095;-68
2021/10/18 06:01:49;;;;;;;90.10;33.50;;;9.00;99.90;;;;;;4918595;29;20024;-70
2021/10/18 06:04:15;;;;;;;86.80;33.88;;;9.00;99.90;;;;;;4918000;29;20565;-71
2021/10/18 06:06:41;;;;;;;95.07;36.17;;;9.10;99.90;;;;;;4918019;29;20360;-69
2021/10/18 06:09:07;;;;;;;79.97;32.38;;;9.20;99.90;;;;;;4917980;29;20039;-69
2021/10/18 06:11:33;;;;;;;83.90;32.60;;;9.10;99.90;;;;;;4918281;29;20106;-70
2021/10/18 06:13:59;;;;;;;85.22;31.73;;;9.00;99.90;;;;;;4917669;29;20213;-62
2021/10/18 06:16:25;;;;;;;89.93;31.58;;;9.00;99.90;;;;;;4917756;29;20116;-64
2021/10/18 06:18:51;;;;;;;74.40;29.30;;;9.00;99.90;;;;;;4918095;29;20120;-64
2021/10/18 06:21:17;;;;;;;71.75;28.63;;;9.10;99.90;;;;;;4918551;29;20154;-64
2021/10/18 06:23:44;;;;;;;74.88;29.15;;;9.00;99.90;;;;;;4918078;29;20107;-63
2021/10/18 06:26:10;;;;;;;79.45;31.73;;;9.10;99.90;;;;;;4917183;29;20032;-61
2021/10/18 06:28:38;;;;;;;70.97;29.58;;;9.10;99.90;;;;;;4917850;29;20107;-63
2021/10/18 06:31:04;;;;;;;73.07;29.55;;;9.10;99.90;;;;;;4918306;29;20024;-63
2021/10/18 06:33:29;;;;;;;89.55;32.58;;;9.20;99.90;;;;;;4917787;29;20479;-64
2021/10/18 06:35:55;;;;;;;72.75;29.48;;;9.20;99.90;;;;;;4917118;29;20028;-63
2021/10/18 06:38:22;;;;;;;73.03;30.08;;;9.10;99.90;;;;;;4917111;29;20024;-62
2021/10/18 06:40:49;;;;;;;71.50;30.73;;;9.10;99.90;;;;;;4918158;29;20028;-62
2021/10/18 06:43:15;;;;;;;75.88;30.15;;;9.10;99.90;;;;;;4917631;29;20438;-62
2021/10/18 06:45:42;;;;;;;73.20;29.90;;;9.10;99.90;;;;;;4917223;29;20391;-62
2021/10/18 06:48:08;;;;;;;69.18;28.88;;;9.20;99.90;;;;;;4917716;29;20033;-64
2021/10/18 06:50:35;;;;;;;67.13;28.67;;;9.20;99.90;;;;;;4917834;29;20048;-62
2021/10/18 06:53:01;;;;;;;59.35;27.08;;;9.10;99.90;;;;;;4917921;29;20039;-62
2021/10/18 06:55:27;;;;;;;51.45;26.75;;;9.30;99.90;;;;;;4917000;29;20028;-61
2021/10/18 06:57:54;;;;;;;51.53;25.02;;;9.30;99.90;;;;;;4917370;29;20502;-61
2021/10/18 07:00:19;;;;;;;46.95;25.58;;;9.30;99.90;;;;;;4917799;29;20406;-60
2021/10/18 07:02:45;;;;;;;50.40;26.30;;;9.30;99.90;;;;;;4917535;29;20039;-61
2021/10/18 07:05:11;;;;;;;47.72;24.45;;;9.20;99.90;;;;;;4917095;29;20115;-64
2021/10/18 07:07:37;;;;;;;46.33;24.77;;;9.30;99.90;;;;;;4917669;29;20123;-62
2021/10/18 07:10:04;;;;;;;41.30;22.60;;;9.40;99.90;;;;;;4917562;29;20087;-63
2021/10/18 07:12:31;;;;;;;40.40;22.67;;;9.40;99.90;;;;;;4917281;29;20040;-63
2021/10/18 07:14:59;;;;;;;36.83;21.65;;;9.30;99.90;;;;;;4917080;29;20032;-63
2021/10/18 07:17:26;;;;;;;45.83;23.42;;;9.30;99.90;;;;;;4917057;29;20494;-63
2021/10/18 07:19:53;;;;;;;37.95;22.02;;;9.40;99.90;;;;;;4917611;29;20134;-63
2021/10/18 07:22:21;;;;;;;42.38;22.40;;;9.40;99.90;;;;;;4917337;29;20032;-62
2021/10/18 07:24:47;;;;;;;37.35;21.58;;;9.40;99.90;;;;;;4916684;29;20028;-62
2021/10/18 07:27:12;;;;;;;38.28;21.80;;;9.50;99.90;;;;;;4908973;29;20393;-62
2021/10/18 07:29:38;;;;;;;43.45;23.90;;;9.60;99.90;;;;;;4898134;29;20040;-63
2021/10/18 07:32:05;;;;;;;33.67;21.30;;;9.60;99.90;;;;;;4898206;29;20585;-60
2021/10/18 07:34:31;;;;;;;39.53;21.20;;;9.70;99.90;;;;;;4897681;29;20120;-62
2021/10/18 07:36:57;;;;;;;39.35;21.75;;;9.70;99.90;;;;;;4897866;29;20157;-63
2021/10/18 07:39:25;;;;;;;37.65;21.70;;;9.60;99.90;;;;;;4897884;29;20032;-62
2021/10/18 07:41:55;;;;;;;43.88;24.10;;;9.80;99.90;;;;;;4897914;29;20036;-64
2021/10/18 07:44:24;;;;;;;39.45;23.35;;;9.90;99.90;;;;;;4897522;29;20032;-61
2021/10/18 07:46:51;;;;;;;33.97;21.17;;;9.90;99.90;;;;;;4898020;29;20024;-62
2021/10/18 07:49:17;;;;;;;34.55;21.52;;;9.90;99.90;;;;;;4897427;29;20024;-63
2021/10/18 07:51:43;;;;;;;38.05;20.58;;;9.90;99.90;;;;;;4897965;29;20027;-63
2021/10/18 07:54:08;;;;;;;38.55;20.65;;;9.80;99.90;;;;;;4897764;29;20116;-63
2021/10/18 07:56:34;;;;;;;43.05;23.30;;;9.80;99.90;;;;;;4900251;29;20033;-63
2021/10/18 07:59:00;;;;;;;34.03;20.83;;;10.00;99.90;;;;;;4916133;29;20028;-62
2021/10/18 08:01:26;;;;;;;38.40;20.45;;;9.80;99.90;;;;;;4916462;29;20107;-62
2021/10/18 08:03:52;;;;;;;34.38;20.52;;;9.80;99.90;;;;;;4916431;29;20071;-64
2021/10/18 08:06:17;;;;;;;40.47;21.83;;;9.80;99.90;;;;;;4915845;29;20493;-62
2021/10/18 08:08:54;;;;;;;35.55;20.98;;;10.00;99.90;;;;;;4916183;29;20028;-63
2021/10/18 08:11:26;;;;;;;35.28;20.77;;;10.00;99.90;;;;;;5109598;27;20368;-64
2021/10/18 08:13:51;;;;;;;35.47;20.40;;;10.10;99.90;;;;;;5107887;28;20028;-63
2021/10/18 08:16:17;;;;;;;34.63;20.88;;;10.10;99.90;;;;;;5108959;28;20069;-63
2021/10/18 08:18:43;;;;;;;37.28;20.33;;;10.20;99.90;;;;;;5109477;28;20020;-63
2021/10/18 08:21:11;;;;;;;30.95;20.20;;;10.20;99.90;;;;;;5109323;28;20806;-63
2021/10/18 08:23:36;;;;;;;31.90;18.95;;;10.10;99.90;;;;;;5109748;28;20027;-63
2021/10/18 08:26:05;;;;;;;34.25;20.20;;;10.10;99.90;;;;;;5108328;28;20462;-61
2021/10/18 08:28:31;;;;;;;41.28;21.63;;;10.00;99.90;;;;;;5108860;28;20108;-62
2021/10/18 08:30:58;;;;;;;35.67;22.02;;;10.00;99.90;;;;;;5107780;28;20031;-63
2021/10/18 08:33:23;;;;;;;37.55;21.17;;;10.10;99.90;;;;;;5110135;28;20031;-62
2021/10/18 08:35:50;;;;;;;38.85;24.95;;;10.20;99.90;;;;;;5109052;28;20024;-63
2021/10/18 08:41:03;;;;;;;40.63;22.38;;;10.40;99.90;;;;;;5109846;28;20039;-61
2021/10/18 08:44:14;;;;;;;36.33;21.25;;;10.50;99.90;;;;;;5109144;28;20549;-63
2021/10/18 08:46:20;;;;;;;33.40;20.05;;;10.50;99.90;;;;;;5108448;28;20370;-64
2021/10/18 08:48:47;;;;;;;;;;;10.50;99.90;;;;;;5110203;28;20522;-62
2021/10/18 08:51:13;;;;;;;38.40;20.65;;;10.50;99.90;;;;;;5109474;28;19919;-62
2021/10/18 08:53:39;;;;;;;35.58;21.02;;;10.40;99.90;;;;;;5109443;28;20016;-62
2021/10/18 08:56:04;;;;;;;34.70;20.02;;;10.50;99.90;;;;;;5108267;28;20542;-61
2021/10/18 08:58:30;;;;;;;31.48;20.08;;;10.50;99.90;;;;;;5108678;28;20099;-62
2021/10/18 09:00:56;;;;;;;33.45;19.85;;;10.50;99.90;;;;;;5108898;28;20173;-63
2021/10/18 09:03:28;;;;;;;33.90;19.10;;;10.40;99.90;;;;;;5108660;28;20084;-62
2021/10/18 09:06:15;;;;;;;35.00;20.08;;;10.60;99.90;;;;;;5108152;28;20035;-63
2021/10/18 09:08:50;;;;;;;34.67;19.83;;;10.50;99.90;;;;;;5109049;28;20381;-63
2021/10/18 09:11:20;;;;;;;36.80;19.95;;;10.70;99.90;;;;;;5108357;28;20042;-62
2021/10/18 09:13:55;;;;;;;35.53;20.73;;;10.70;99.90;;;;;;5108183;28;20023;-62
2021/10/18 09:16:33;;;;;;;30.55;18.73;;;10.70;99.90;;;;;;5108223;28;20046;-64
2021/10/18 09:19:13;;;;;;;30.27;18.33;;;10.70;99.90;;;;;;5108688;28;20023;-62
2021/10/18 09:21:41;;;;;;;29.38;18.80;;;10.90;99.90;;;;;;5101492;28;20024;-62
2021/10/18 09:24:11;;;;;;;30.98;17.88;;;11.10;99.90;;;;;;5094849;28;20373;-62
2021/10/18 09:26:38;;;;;;;28.58;17.85;;;11.10;99.90;;;;;;5094767;28;20038;-62
2021/10/18 09:29:13;;;;;;;27.88;18.45;;;11.30;99.90;;;;;;5094705;28;20107;-64
2021/10/18 09:31:41;;;;;;;26.55;17.20;;;11.20;99.90;;;;;;5095041;28;20036;-62
2021/10/18 09:34:11;;;;;;;28.20;17.70;;;11.50;99.90;;;;;;5094615;28;20035;-62
2021/10/18 09:36:38;;;;;;;32.60;18.88;;;11.70;99.90;;;;;;5094051;28;20384;-64
2021/10/18 09:39:22;;;;;;;26.75;17.90;;;11.80;99.90;;;;;;5094681;28;20016;-64
2021/10/18 09:42:02;;;;;;;27.88;16.42;;;12.00;99.90;;;;;;5094866;28;20034;-61
2021/10/18 10:51:58;;;;;;;14.05;11.75;;;19.60;99.50;;;;;;5093486;28;20431;-63
2021/10/18 10:54:39;;;;;;;13.75;10.75;;;19.30;99.90;;;;;;5092737;28;20031;-64
2021/10/18 10:57:12;;;;;;;11.90;10.70;;;20.00;99.50;;;;;;5092940;28;20076;-63
2021/10/18 10:59:51;;;;;;;11.85;10.43;;;19.90;99.40;;;;;;5092822;28;20410;-64
2021/10/18 11:02:29;;;;;;;13.02;11.02;;;20.40;99.10;;;;;;5092788;28;20031;-64
2021/10/18 11:04:54;;;;;;;12.50;10.80;;;20.50;99.00;;;;;;5092610;28;20057;-64
2021/10/18 11:07:40;;;;;;;14.82;10.38;;;20.90;98.40;;;;;;5092747;28;20032;-65
2021/10/18 11:10:07;;;;;;;14.15;10.18;;;20.90;98.20;;;;;;5093236;28;20066;-64
2021/10/18 11:12:42;;;;;;;12.60;9.95;;;20.70;98.30;;;;;;5100077;28;20073;-66
2021/10/18 11:15:09;;;;;;;13.88;10.80;;;20.70;97.50;;;;;;5092964;28;20016;-63
2021/10/18 11:17:38;;;;;;;13.68;9.60;;;21.30;97.50;;;;;;5094451;28;20099;-63
2021/10/18 11:20:08;;;;;;;12.10;10.05;;;21.70;97.30;;;;;;5093946;28;20052;-66
2021/10/18 11:22:54;;;;;;;12.82;9.88;;;21.40;95.70;;;;;;5092837;28;20074;-64
2021/10/18 11:25:23;;;;;;;14.18;10.30;;;21.30;96.10;;;;;;5091871;28;20031;-62
2021/10/18 11:27:53;;;;;;;11.32;10.07;;;21.30;96.40;;;;;;5091788;28;20055;-63
2021/10/18 11:30:21;;;;;;;10.77;9.68;;;20.20;97.90;;;;;;5092335;28;20446;-63
2021/10/18 11:32:58;;;;;;;12.00;9.15;;;21.00;97.50;;;;;;5092278;28;20024;-64
2021/10/18 11:35:25;;;;;;;10.18;8.80;;;21.10;96.70;;;;;;5091931;28;20016;-64
2021/10/18 11:37:53;;;;;;;10.77;9.60;;;21.20;96.60;;;;;;5091825;28;20012;-63
2021/10/18 11:40:23;;;;;;;10.57;9.48;;;22.00;95.30;;;;;;5091958;28;20047;-63
2021/10/18 11:43:08;;;;;;;13.35;9.48;;;22.10;94.80;;;;;;5092371;28;20043;-64
2021/10/18 11:45:55;;;;;;;11.73;9.65;;;21.90;95.30;;;;;;5091344;28;20035;-65
2021/10/18 11:48:27;;;;;;;9.07;7.90;;;20.90;96.30;;;;;;5091827;28;20493;-64
2021/10/18 11:50:54;;;;;;;;;;;21.60;95.40;;;;;;5093372;28;20031;-63
2021/10/18 11:53:22;;;;;;;12.27;9.93;;;22.80;93.70;;;;;;5092580;28;20254;-65
2021/10/18 11:55:53;;;;;;;11.00;9.45;;;22.50;94.20;;;;;;5091174;28;20020;-65
2021/10/18 11:58:25;;;;;;;9.65;8.75;;;22.30;94.50;;;;;;5091690;28;20031;-63
2021/10/18 12:01:06;;;;;;;9.60;8.25;;;22.90;94.00;;;;;;5092138;28;20459;-63
2021/10/18 12:03:34;;;;;;;10.48;9.40;;;22.90;93.60;;;;;;5092222;28;20148;-64
2021/10/18 12:06:02;;;;;;;10.68;9.57;;;23.50;93.40;;;;;;5090938;28;20053;-64
2021/10/18 12:08:29;;;;;;;14.02;9.57;;;24.00;92.50;;;;;;5091540;28;20049;-63
2021/10/18 12:10:55;;;;;;;10.07;8.98;;;23.60;92.40;;;;;;5091398;28;20107;-64
2021/10/18 12:13:25;;;;;;;13.27;9.20;;;23.50;92.20;;;;;;5091473;28;20501;-63
2021/10/18 12:16:02;;;;;;;9.48;8.43;;;23.10;92.50;;;;;;5091002;28;20023;-63
2021/10/18 12:18:38;;;;;;;13.07;8.57;;;23.20;92.40;;;;;;5091438;28;20162;-63
2021/10/18 12:21:08;;;;;;;9.98;8.80;;;21.80;93.80;;;;;;5091626;28;20020;-63
2021/10/18 12:23:49;;;;;;;9.35;8.15;;;22.40;93.00;;;;;;5091880;28;20024;-64
2021/10/18 12:26:17;;;;;;;12.20;8.95;;;22.90;92.40;;;;;;5091085;28;20028;-64
2021/10/18 12:28:43;;;;;;;11.98;9.27;;;23.50;91.60;;;;;;5091211;28;20031;-64
2021/10/18 12:31:31;;;;;;;12.32;9.23;;;24.10;90.50;;;;;;5091605;28;20036;-64
2021/10/18 12:34:18;;;;;;;11.23;7.60;;;24.40;91.20;;;;;;5091237;28;20528;-64
2021/10/18 12:36:52;;;;;;;9.05;8.15;;;24.40;90.30;;;;;;5091160;28;20103;-64
2021/10/18 12:39:41;;;;;;;8.48;7.35;;;24.50;90.10;;;;;;5091317;28;20021;-64
2021/10/18 12:42:14;;;;;;;8.50;7.65;;;24.60;89.10;;;;;;5091530;28;20016;-64
2021/10/18 12:44:43;;;;;;;8.15;7.43;;;24.50;88.30;;;;;;5090258;28;20081;-64
2021/10/18 12:47:20;;;;;;;9.57;8.10;;;23.80;90.40;;;;;;5091230;28;20106;-64
2021/10/18 12:49:56;;;;;;;8.52;7.63;;;23.30;90.60;;;;;;5084191;28;20726;-71
2021/10/18 12:52:50;;;;;;;7.47;6.82;;;23.20;90.60;;;;;;5090131;28;20028;-70
2021/10/18 12:55:32;;;;;;;7.45;6.75;;;24.10;89.80;;;;;;5090375;28;20020;-70
2021/10/18 12:58:00;;;;;;;7.60;5.97;;;24.60;88.70;;;;;;5094012;28;20020;-71
2021/10/18 13:00:37;;;;;;;10.77;5.65;;;25.40;85.00;;;;;;5094118;28;20113;-71
2021/10/18 13:03:09;;;;;;;7.88;6.18;;;25.40;84.80;;;;;;5092246;28;20478;-71
2021/10/18 13:05:42;;;;;;;6.55;5.93;;;24.50;86.30;;;;;;5092738;28;20024;-70
2021/10/18 13:08:09;;;;;;;8.30;6.60;;;24.60;85.20;;;;;;5094748;28;20393;-70
2021/10/18 13:10:36;;;;;;;7.55;6.05;;;23.80;85.90;;;;;;5094216;28;20767;-70
2021/10/18 13:13:10;;;;;;;6.40;5.78;;;23.70;86.80;;;;;;5094484;28;20028;-71
2021/10/18 13:15:37;;;;;;;9.98;8.88;;;23.60;87.30;;;;;;5093796;28;20070;-71
2021/10/18 13:18:04;;;;;;;7.00;5.78;;;23.70;88.10;;;;;;5094512;28;20444;-71
2021/10/18 13:20:30;;;;;;;5.85;5.32;;;23.60;85.90;;;;;;5093736;28;20028;-71
2021/10/18 13:23:00;;;;;;;7.38;5.72;;;23.60;86.60;;;;;;5088472;28;20084;-71
2021/10/18 13:25:28;;;;;;;6.10;5.50;;;23.40;87.30;;;;;;5096508;28;20024;-70
2021/10/18 13:27:54;;;;;;;6.15;5.40;;;23.20;88.40;;;;;;5094172;28;20038;-71
2021/10/18 13:30:21;;;;;;;7.97;5.53;;;22.60;89.30;;;;;;5094099;28;20028;-71
2021/10/18 13:32:49;;;;;;;6.90;5.00;;;23.10;90.00;;;;;;5093801;28;20022;-74
2021/10/18 13:35:15;;;;;;;6.50;5.60;;;23.00;89.70;;;;;;5093671;28;20016;-72
2021/10/18 13:37:41;;;;;;;8.75;5.15;;;22.80;90.00;;;;;;5093309;28;20087;-73
2021/10/18 13:40:10;;;;;;;6.40;5.43;;;22.40;89.80;;;;;;5094033;28;20107;-73
2021/10/18 13:42:36;;;;;;;5.70;5.07;;;22.90;90.50;;;;;;5093565;28;20065;-72
2021/10/18 13:45:03;;;;;;;5.38;4.85;;;22.90;88.90;;;;;;5093066;28;20039;-73
2021/10/18 13:47:28;;;;;;;5.57;5.07;;;22.50;87.80;;;;;;5093934;28;20024;-73
2021/10/18 13:49:54;;;;;;;6.10;5.40;;;22.40;90.00;;;;;;5093823;28;20389;-73